Aviation Digital Data Service (ADDS)

Output produced by METARs form (0314 UTC 21 September 2021)
found at http://aviationweather.gov/metar/data/
 
KEMT 210245Z 21006KT 10SM CLR 25/15 A2993
KPOC 210247Z 26008KT 10SM CLR 25/11 A2997
KFUL 210253Z 23004KT 10SM CLR 22/17 A2992 RMK AO2 SLP131 T02170172 53018
KBUR 210253Z 13005KT 10SM CLR 25/13 A2993 RMK AO2 SLP123 T02500133 53019 $
KBUR 202334Z 2100/2124 16011KT P6SM SKC 
     FM210300 13005KT P6SM SKC 
     FM210800 VRB03KT P6SM SKC 
     FM212100 17010KT P6SM SKC
       
KONT 210253Z 24007KT 10SM CLR 27/13 A2994 RMK AO2 SLP123 T02720128 53019
KONT 202324Z 2100/2206 26011KT P6SM SKC 
     FM210400 VRB04KT P6SM SKC 
     FM212000 26011KT P6SM SKC 
     FM220400 VRB04KT P6SM SKC
       
KCNO 210253Z 28007KT 10SM CLR 24/14 A2994 RMK AO2 SLP133 T02440139 53019
KAJO 210256Z AUTO 26007KT 10SM CLR 24/16 A2994 RMK AO2 SLP131 6//// T02390161 53023
KLGB 210253Z 18004KT 10SM CLR 21/17 A2993 RMK AO2 SLP135 T02060167 53016
KLGB 202334Z 2100/2124 29008KT P6SM SKC 
     FM210400 VRB03KT P6SM SKC 
     FM211000 15005KT 5SM HZ SCT007 
     FM211700 19007KT P6SM SKC
       
KTOA 210247Z 28006KT 10SM FEW010 19/17 A2993 RMK LAST
KHHR 210253Z 25005KT 10SM CLR 21/17 A2993 RMK AO2 SLP134 T02110167 53017
KLAX 210253Z 26006KT 10SM FEW010 20/17 A2993 RMK AO2 SLP134 T02000167 53015
KLAX 210251Z 2103/2206 25007KT P6SM FEW008 
     FM210500 VRB03KT P6SM FEW006 
     FM211000 09005KT 4SM HZ SCT004 
     FM211800 26010KT P6SM SKC 
     FM220400 VRB03KT P6SM SKC
       
KAVX 210251Z AUTO 16004KT 10SM CLR 23/08 A2998 RMK AO2 SLP133 T02280083 53013
KSMO 210251Z 25003KT 10SM CLR 19/17 A2993 RMK AO2 SLP135 T01940167 53016
KSMO 202334Z 2100/2124 24008KT P6SM SKC 
     FM210300 VRB03KT P6SM SKC 
     FM211000 10005KT 5SM HZ SCT004 
     FM211900 23008KT P6SM SKC
       
KCMA 210255Z 00000KT 10SM CLR 21/16 A2992 RMK AO2 SLP141 T02110156 53015
KCMA 202334Z 2100/2124 23008KT P6SM SKC 
     FM210300 VRB03KT P6SM SKC 
     FM211000 07006KT 5SM HZ SKC 
     FM211700 16010KT P6SM SKC 
     FM212000 24008KT P6SM SKC
       
KOXR 210251Z 29003KT 10SM CLR 19/16 A2992 RMK AO2 SLP132 T01940156 53014
KOXR 202334Z 2100/2124 25008KT P6SM SKC 
     FM210300 VRB03KT P6SM SKC 
     FM210900 VRB03KT 1SM BR BKN004 
     FM211600 12008KT 5SM HZ SKC 
     FM212000 24009KT P6SM SKC
       
KRAL 210253Z 24006KT 10SM CLR 26/13 A2994 RMK AO2 SLP122 T02610128 53021
KRIV 210258Z 30004KT 10SM CLR 27/13 A2997 RMK AO2A SLPNO ALSTG ESTMD
TAF KRIV 202002Z 2020/2202 31012KT 9999 SKC QNH2988INS 
     BECMG 2105/2106 VRB05KT 9999 SKC QNH2996INS 
     BECMG 2116/2117 04009KT 9999 SKC QNH3009INS 
     BECMG 2121/2122 31012KT 9999 SKC QNH3004INS TX34/2022Z TN16/2113Z
       
KF70 210255Z AUTO 15004KT 10SM CLR 23/13 A2997 RMK AO2
KF70 210235Z AUTO 15004KT 10SM CLR 24/13 A2996 RMK AO2
KF70 210215Z AUTO 15003KT 10SM CLR 24/12 A2995 RMK AO2
KRNM 210253Z 29003KT 10SM CLR 18/13 A2997 RMK AO2 SLP139 T01830133 53016
KCRQ 210253Z 19003KT 10SM CLR 19/16 A2994 RMK AO2 SLP134 T01940161 53014
KCRQ 210236Z 2103/2124 VRB04KT P6SM FEW008 
     FM211100 VRB04KT P6SM BKN008 
     FM211600 VRB04KT P6SM FEW010 
     FM212100 26007KT P6SM SKC
       
KOKB 210252Z AUTO 00000KT 9SM CLR 19/17 A2993 RMK AO2 SLP135 T01890167 53015
KIZA 210255Z AUTO 24003KT 10SM CLR 20/11 A2996 RMK AO2
KIZA 210235Z AUTO 23003KT 10SM CLR 21/11 A2996 RMK AO2
KIZA 210215Z AUTO 24004KT 10SM CLR 22/11 A2995 RMK AO2